Time;durP1;ratioP1;P1;durP2;ratioP2;P2;SDS_P1;SDS_P2;PMS_P1;PMS_P2;Temp;Humidity;BMP_temperature;BMP_pressure;BME280_temperature;BME280_humidity;BME280_pressure;Samples;Min_cycle;Max_cycle;Signal;HPM_P1;HPM_P2
2022/12/10 02:36:03;;;;;;;20.83;10.68;;;-1.30;1.00;;;;;;5118314;22;20277;-81
2022/12/10 02:38:35;;;;;;;17.48;10.45;;;-1.30;1.00;;;;;;5117608;27;20180;-81
2022/12/10 02:41:06;;;;;;;22.30;11.32;;;-1.40;1.00;;;;;;5121539;27;20183;-81
2022/12/10 02:43:34;;;;;;;20.95;10.50;;;-1.00;1.00;;;;;;5121058;27;20215;-82
2022/12/10 02:46:04;;;;;;;23.67;12.00;;;-1.60;1.00;;;;;;5085081;28;20229;-82
2022/12/10 02:48:32;;;;;;;18.30;9.82;;;-1.80;1.00;;;;;;5079981;28;20209;-82
2022/12/10 02:51:01;;;;;;;18.33;10.73;;;-1.80;1.00;;;;;;5080124;28;20636;-82
2022/12/10 02:53:27;;;;;;;25.98;11.85;;;-1.70;1.00;;;;;;5079886;28;20205;-82
2022/12/10 02:56:08;;;;;;;22.13;12.85;;;-1.80;1.00;;;;;;5078611;28;20249;-82
2022/12/10 02:58:45;;;;;;;21.25;12.45;;;-1.40;1.00;;;;;;5082237;28;20189;-82
2022/12/10 03:01:21;;;;;;;19.35;10.57;;;-1.90;1.00;;;;;;5084996;28;20193;-82
2022/12/10 03:03:53;;;;;;;20.92;12.30;;;-1.60;1.00;;;;;;5080502;28;20208;-82
2022/12/10 03:06:26;;;;;;;21.35;11.05;;;-1.50;1.00;;;;;;5079903;28;20729;-81
2022/12/10 03:09:00;;;;;;;24.60;12.55;;;-1.90;1.00;;;;;;5080666;28;20190;-82
2022/12/10 03:11:27;;;;;;;21.23;11.75;;;;;;;;;;5079839;28;20267;-83
2022/12/10 03:13:59;;;;;;;21.10;11.13;;;-1.70;1.00;;;;;;5080822;28;20291;-82
2022/12/10 03:16:30;;;;;;;25.73;13.65;;;-1.60;1.00;;;;;;5082563;28;20279;-82
2022/12/10 03:19:01;;;;;;;22.48;11.43;;;-1.50;1.00;;;;;;5081036;28;20760;-83
2022/12/10 03:21:33;;;;;;;24.70;12.48;;;-1.50;1.00;;;;;;5081029;28;20275;-82
2022/12/10 03:24:04;;;;;;;31.95;15.68;;;-1.40;1.00;;;;;;5082852;28;20209;-82
2022/12/10 03:26:32;;;;;;;29.60;14.20;;;-1.50;1.00;;;;;;5081507;28;20270;-81
2022/12/10 03:29:05;;;;;;;25.10;12.73;;;-1.30;1.00;;;;;;5081374;28;20204;-83
2022/12/10 03:31:34;;;;;;;27.80;13.63;;;-1.60;1.00;;;;;;5079689;28;20967;-83
2022/12/10 03:34:02;;;;;;;34.60;15.70;;;-1.30;1.00;;;;;;5078962;28;20496;-81
2022/12/10 03:36:31;;;;;;;29.75;15.25;;;-1.30;1.00;;;;;;5080466;28;20244;-81
2022/12/10 03:38:59;;;;;;;23.98;12.82;;;-0.50;1.00;;;;;;5084943;28;20640;-82
2022/12/10 03:41:26;;;;;;;23.85;12.68;;;-1.60;1.00;;;;;;5090168;28;20201;-81
2022/12/10 03:43:54;;;;;;;26.15;13.60;;;-1.50;1.00;;;;;;5080943;28;20292;-81
2022/12/10 03:46:20;;;;;;;26.52;14.70;;;-1.30;1.00;;;;;;5079687;28;20097;-81
2022/12/10 03:48:47;;;;;;;23.98;13.43;;;-1.40;1.00;;;;;;5084887;28;20126;-82
2022/12/10 03:51:14;;;;;;;23.15;13.27;;;-1.80;1.00;;;;;;5092653;28;20251;-80
2022/12/10 03:53:43;;;;;;;22.45;12.07;;;-1.40;1.00;;;;;;5099539;28;20184;-80
2022/12/10 03:56:10;;;;;;;28.02;15.02;;;;;;;;;;5097240;28;20295;-81
2022/12/10 03:58:36;;;;;;;26.00;13.60;;;-1.70;1.00;;;;;;5092235;28;20228;-82
2022/12/10 04:01:03;;;;;;;27.45;12.07;;;-1.40;1.00;;;;;;5092063;28;20275;-81
2022/12/10 04:03:30;;;;;;;23.58;13.02;;;-1.50;1.00;;;;;;5090736;28;20248;-81
2022/12/10 04:06:02;;;;;;;30.60;16.80;;;-1.20;1.00;;;;;;5081726;28;20593;-81
2022/12/10 04:08:29;;;;;;;33.72;16.40;;;-1.30;1.00;;;;;;5082049;28;20438;-81
2022/12/10 04:11:04;;;;;;;28.55;14.35;;;-1.20;1.00;;;;;;5099626;28;20248;-81
2022/12/10 04:16:29;;;;;;;31.25;16.98;;;-1.50;1.00;;;;;;5098941;28;20437;-80
2022/12/10 04:18:58;;;;;;;26.48;14.57;;;-1.40;1.00;;;;;;5098886;28;20173;-81
2022/12/10 04:26:57;;;;;;;23.70;12.82;;;-1.00;1.00;;;;;;5084526;28;20208;-81
2022/12/10 04:29:27;;;;;;;29.52;13.38;;;-1.20;1.00;;;;;;5085357;28;20215;-83
2022/12/10 04:31:54;;;;;;;24.08;12.25;;;-1.40;1.00;;;;;;5081763;28;20204;-82
2022/12/10 04:34:22;;;;;;;26.20;14.82;;;-1.30;1.00;;;;;;5081653;28;20253;-82
2022/12/10 04:36:49;;;;;;;29.95;12.88;;;-1.00;1.00;;;;;;5081888;28;20254;-82
2022/12/10 04:39:16;;;;;;;28.30;13.27;;;-1.40;1.00;;;;;;5080938;28;20240;-82
2022/12/10 04:41:45;;;;;;;28.42;13.68;;;-1.00;1.00;;;;;;5078462;28;20205;-82
2022/12/10 04:44:13;;;;;;;28.23;14.43;;;-1.30;1.00;;;;;;5078869;28;20225;-82
2022/12/10 04:46:40;;;;;;;28.63;14.13;;;-1.10;1.00;;;;;;5078593;28;20233;-82
2022/12/10 04:49:08;;;;;;;29.67;14.98;;;;;;;;;;5084338;28;20216;-81
2022/12/10 04:51:34;;;;;;;27.80;13.57;;;-1.00;1.00;;;;;;5092354;28;20236;-82
2022/12/10 04:54:02;;;;;;;24.05;11.85;;;-2.20;1.00;;;;;;5090443;28;20261;-81
2022/12/10 04:56:29;;;;;;;26.30;13.10;;;-1.10;1.00;;;;;;5087636;28;20209;-82
2022/12/10 04:58:57;;;;;;;22.45;12.25;;;-1.10;1.00;;;;;;5079411;28;20266;-82
2022/12/10 05:01:26;;;;;;;26.13;13.88;;;-1.20;1.00;;;;;;5078481;28;20205;-83
2022/12/10 05:03:53;;;;;;;25.42;11.98;;;-1.20;1.00;;;;;;5078527;28;20244;-83
2022/12/10 05:06:21;;;;;;;27.92;12.88;;;-1.00;1.00;;;;;;5078213;28;20597;-83
2022/12/10 05:08:48;;;;;;;32.45;14.13;;;-0.90;1.00;;;;;;5078837;28;20236;-82
2022/12/10 05:11:17;;;;;;;23.67;12.85;;;-0.80;1.00;;;;;;5078772;28;20204;-82
2022/12/10 05:13:44;;;;;;;24.45;13.88;;;-0.90;1.00;;;;;;5078330;28;20765;-82
2022/12/10 05:16:13;;;;;;;25.33;13.70;;;-1.20;1.00;;;;;;5077670;28;20227;-82
2022/12/10 05:18:44;;;;;;;26.55;14.07;;;-0.90;1.00;;;;;;5078301;28;20235;-82
2022/12/10 05:21:13;;;;;;;24.88;13.18;;;-0.70;1.00;;;;;;5078941;28;20190;-82
2022/12/10 05:23:40;;;;;;;22.55;13.05;;;-1.50;1.00;;;;;;5078211;28;20304;-82
2022/12/10 05:26:09;;;;;;;25.88;14.00;;;-1.00;1.00;;;;;;5079111;28;20226;-83
2022/12/10 05:28:38;;;;;;;28.40;14.75;;;-0.90;99.90;;;;;;5079158;28;20627;-83
2022/12/10 05:31:06;;;;;;;24.48;15.00;;;-0.70;1.00;;;;;;5077934;28;20201;-83
2022/12/10 05:33:33;;;;;;;24.35;12.82;;;-1.10;1.00;;;;;;5078470;28;20254;-82
2022/12/10 05:36:03;;;;;;;27.85;15.10;;;-0.80;1.00;;;;;;5077803;28;20235;-83
2022/12/10 05:38:32;;;;;;;26.00;13.65;;;-0.80;99.90;;;;;;5078186;28;20288;-82
2022/12/10 05:41:02;;;;;;;25.30;13.13;;;-0.60;1.00;;;;;;5078852;28;20227;-82
2022/12/10 05:43:29;;;;;;;26.02;13.65;;;-1.00;1.00;;;;;;5078624;28;20216;-82
2022/12/10 05:46:00;;;;;;;25.27;13.05;;;-0.60;1.00;;;;;;5078413;28;20231;-83
2022/12/10 05:48:27;;;;;;;22.23;13.13;;;-0.90;1.00;;;;;;5091138;28;20234;-80
2022/12/10 05:50:54;;;;;;;25.92;13.32;;;-0.60;99.90;;;;;;5094421;28;20228;-82
2022/12/10 05:53:23;;;;;;;22.40;13.55;;;-0.70;99.90;;;;;;5094760;28;20233;-81
2022/12/10 05:55:50;;;;;;;17.67;10.98;;;-0.90;99.90;;;;;;5086715;28;20289;-82
2022/12/10 05:58:16;;;;;;;22.00;13.38;;;-0.30;99.90;;;;;;5083109;28;20300;-82
2022/12/10 06:00:43;;;;;;;22.30;13.00;;;-0.40;99.90;;;;;;5087997;28;20229;-82
2022/12/10 06:03:10;;;;;;;24.65;14.05;;;-0.30;99.90;;;;;;5089688;28;20225;-82
2022/12/10 06:05:38;;;;;;;23.52;15.07;;;-0.90;99.90;;;;;;5090239;28;20241;-81
2022/12/10 06:08:06;;;;;;;24.52;11.88;;;-0.40;99.90;;;;;;5083817;28;20201;-82
2022/12/10 06:10:36;;;;;;;20.63;12.95;;;-0.90;99.90;;;;;;5084720;28;20262;-82
2022/12/10 06:13:03;;;;;;;34.03;12.75;;;-0.60;99.90;;;;;;5087031;28;20553;-82
2022/12/10 06:15:30;;;;;;;21.23;12.63;;;-1.00;99.90;;;;;;5088265;28;20287;-82
2022/12/10 06:17:58;;;;;;;20.40;11.25;;;-0.90;99.90;;;;;;5088106;28;20301;-82
2022/12/10 06:20:25;;;;;;;22.27;12.45;;;-0.60;99.90;;;;;;5081491;28;20305;-82
2022/12/10 06:22:52;;;;;;;23.17;12.77;;;-0.60;99.90;;;;;;5078238;28;20232;-82
2022/12/10 06:25:19;;;;;;;14.02;10.52;;;-0.30;99.90;;;;;;5076880;28;20316;-82
2022/12/10 06:27:47;;;;;;;23.45;13.68;;;-0.70;99.90;;;;;;5079194;28;20216;-82
2022/12/10 06:30:14;;;;;;;20.65;12.63;;;-0.40;99.90;;;;;;5082155;28;20296;-83
2022/12/10 06:32:42;;;;;;;19.23;11.90;;;-0.20;99.90;;;;;;5080222;28;20247;-83
2022/12/10 06:35:09;;;;;;;17.35;12.05;;;-0.30;99.90;;;;;;5080262;28;20234;-83
2022/12/10 06:37:36;;;;;;;21.05;12.50;;;-0.20;99.90;;;;;;5080316;28;20205;-83
2022/12/10 06:40:04;;;;;;;24.10;11.10;;;-0.20;99.90;;;;;;5079907;28;20201;-82
2022/12/10 06:42:31;;;;;;;16.40;10.13;;;-0.70;99.90;;;;;;5079845;28;20213;-82
2022/12/10 06:44:59;;;;;;;18.83;10.68;;;-0.70;16.90;;;;;;5079127;28;20233;-82
2022/12/10 06:47:26;;;;;;;20.45;11.63;;;;;;;;;;5080322;28;20193;-83
2022/12/10 06:49:53;;;;;;;16.45;10.68;;;-0.40;63.80;;;;;;5080393;28;20205;-83
2022/12/10 06:52:19;;;;;;;17.70;12.73;;;-0.70;92.80;;;;;;5079901;28;20209;-83
2022/12/10 06:54:46;;;;;;;17.55;11.98;;;-0.50;99.90;;;;;;5083743;28;20228;-82
2022/12/10 06:57:13;;;;;;;16.30;10.23;;;-0.90;99.90;;;;;;5088399;28;20292;-82
2022/12/10 06:59:40;;;;;;;16.98;11.65;;;-1.40;46.20;;;;;;5077702;28;20227;-81
2022/12/10 07:02:08;;;;;;;14.00;10.07;;;-0.60;99.90;;;;;;5077799;28;20206;-82
2022/12/10 07:04:35;;;;;;;22.35;11.50;;;-1.60;1.00;;;;;;5077691;28;20228;-81
2022/12/10 07:07:03;;;;;;;17.65;11.65;;;-0.70;97.10;;;;;;5079022;28;20205;-82
2022/12/10 07:09:29;;;;;;;19.60;10.77;;;-0.80;56.50;;;;;;5094893;28;20182;-81
2022/12/10 07:11:56;;;;;;;17.38;10.70;;;-0.50;99.90;;;;;;5101233;28;20205;-80
2022/12/10 07:14:23;;;;;;;20.27;12.88;;;-0.40;99.90;;;;;;5100969;28;20240;-80
2022/12/10 07:16:51;;;;;;;17.23;11.27;;;-0.70;99.90;;;;;;5089270;28;20198;-82
2022/12/10 07:19:19;;;;;;;15.80;11.10;;;-0.30;99.90;;;;;;5089371;28;20287;-82
2022/12/10 07:21:46;;;;;;;19.17;11.55;;;-0.50;80.90;;;;;;5087204;28;20292;-82
2022/12/10 07:24:15;;;;;;;17.13;10.20;;;-0.70;40.50;;;;;;5083929;28;20210;-81
2022/12/10 07:26:45;;;;;;;19.45;11.18;;;-0.60;14.00;;;;;;5080719;28;20201;-83
2022/12/10 07:29:14;;;;;;;15.38;10.50;;;0.10;1.00;;;;;;5078217;28;20206;-82
2022/12/10 07:31:41;;;;;;;15.85;10.10;;;-0.60;1.00;;;;;;5078696;28;20240;-82
2022/12/10 07:34:09;;;;;;;18.25;11.90;;;-0.40;20.50;;;;;;5077384;28;20299;-82
2022/12/10 07:36:38;;;;;;;15.23;10.43;;;-0.20;16.70;;;;;;5077686;28;20191;-83
2022/12/10 07:39:06;;;;;;;20.95;10.65;;;-0.20;1.00;;;;;;5077821;28;20296;-82
2022/12/10 07:41:33;;;;;;;17.23;11.80;;;-0.40;1.00;;;;;;5079285;28;20212;-83
2022/12/10 07:44:00;;;;;;;15.90;10.60;;;-0.20;1.00;;;;;;5078229;28;20205;-83
2022/12/10 07:46:29;;;;;;;12.30;8.93;;;-0.70;1.00;;;;;;5077682;28;20225;-82
2022/12/10 07:48:56;;;;;;;17.58;10.65;;;-0.70;1.00;;;;;;5078163;28;20289;-82
2022/12/10 07:51:23;;;;;;;14.35;9.70;;;-0.40;1.00;;;;;;5088956;28;20208;-82
2022/12/10 07:53:54;;;;;;;14.10;10.70;;;-0.40;1.00;;;;;;5096269;28;20226;-82
2022/12/10 07:56:22;;;;;;;19.17;11.25;;;-0.60;17.60;;;;;;5100164;28;20276;-82
2022/12/10 07:58:50;;;;;;;15.95;10.00;;;-0.50;13.70;;;;;;5099705;28;20186;-79
2022/12/10 08:01:18;;;;;;;20.17;12.15;;;-0.30;18.10;;;;;;5099565;28;20187;-80
2022/12/10 08:03:45;;;;;;;17.88;11.75;;;-1.10;1.00;;;;;;5099491;28;20201;-80
2022/12/10 08:06:14;;;;;;;13.60;10.55;;;-0.60;1.00;;;;;;5099763;28;20237;-81
2022/12/10 08:08:42;;;;;;;19.30;12.27;;;-0.20;1.00;;;;;;5092805;28;20209;-82
2022/12/10 08:11:11;;;;;;;13.77;9.73;;;-0.20;3.30;;;;;;5080808;28;20209;-82
2022/12/10 08:13:39;;;;;;;15.25;11.43;;;-0.20;1.00;;;;;;5079885;28;20295;-83
2022/12/10 08:16:08;;;;;;;15.63;10.20;;;-0.90;1.00;;;;;;5078597;28;20738;-82
2022/12/10 08:18:36;;;;;;;40.97;9.85;;;-0.20;2.80;;;;;;5079287;28;20204;-83
2022/12/10 08:21:05;;;;;;;13.68;10.30;;;-0.40;1.00;;;;;;5080122;28;20205;-82
2022/12/10 08:23:32;;;;;;;18.00;10.70;;;-0.30;44.90;;;;;;5083394;28;20223;-82
2022/12/10 08:25:59;;;;;;;16.65;10.40;;;-0.40;58.40;;;;;;5083395;28;20226;-83
2022/12/10 08:28:27;;;;;;;16.92;11.07;;;-0.30;1.00;;;;;;5082279;28;20272;-81
2022/12/10 08:30:54;;;;;;;20.45;11.45;;;-0.40;1.00;;;;;;5083203;28;20205;-82
2022/12/10 08:33:20;;;;;;;16.92;11.80;;;-0.40;1.00;;;;;;5080604;28;20226;-82
2022/12/10 08:43:34;;;;;;;15.90;10.68;;;;;;;;;;5080094;28;20209;-84
2022/12/10 08:46:46;;;;;;;15.77;11.65;;;;;;;;;;5092123;28;20302;-83
2022/12/10 08:58:29;;;;;;;15.15;9.80;;;;;;;;;;4990509;28;20263;-86
2022/12/10 09:01:37;;;;;;;16.20;11.05;;;-0.30;1.00;;;;;;5023353;28;20211;-85
2022/12/10 09:04:46;;;;;;;18.40;11.68;;;-0.20;1.00;;;;;;5068263;28;20205;-84
2022/12/10 09:13:48;;;;;;;18.35;11.30;;;;;;;;;;5047778;28;20288;-84
2022/12/10 09:29:17;;;;;;;16.05;11.95;;;;;;;;;;5021344;22;20240;-82
2022/12/10 09:31:44;;;;;;;16.85;11.30;;;;;;;;;;5091731;28;20221;-83
2022/12/10 09:34:11;;;;;;;15.98;11.60;;;0.10;1.00;;;;;;5098559;28;20566;-83
2022/12/10 09:36:38;;;;;;;18.48;11.75;;;;;;;;;;5098636;28;20197;-82
2022/12/10 09:39:06;;;;;;;14.32;10.90;;;-0.10;1.00;;;;;;5099434;28;20245;-83
2022/12/10 09:41:53;;;;;;;16.77;12.02;;;0.00;1.00;;;;;;5099288;28;20285;-83
2022/12/10 09:44:28;;;;;;;16.58;10.88;;;-0.10;1.00;;;;;;5103408;28;20532;-82
2022/12/10 09:46:57;;;;;;;16.17;10.85;;;0.00;1.00;;;;;;5111313;28;20212;-82
2022/12/10 09:49:36;;;;;;;17.95;11.80;;;-0.30;1.00;;;;;;5111129;28;20229;-83
2022/12/10 09:52:05;;;;;;;13.50;10.63;;;0.10;1.00;;;;;;5106394;28;20249;-83
2022/12/10 09:54:35;;;;;;;16.52;11.38;;;0.10;1.00;;;;;;5099368;28;20255;-83
2022/12/10 09:57:06;;;;;;;15.20;10.95;;;0.10;1.00;;;;;;5098588;28;20221;-83
2022/12/10 09:59:38;;;;;;;14.32;10.95;;;0.20;1.00;;;;;;5097938;28;20222;-83
2022/12/10 10:02:22;;;;;;;18.00;12.80;;;0.40;1.00;;;;;;5097805;28;20752;-83
2022/12/10 10:04:49;;;;;;;17.45;12.15;;;0.30;1.00;;;;;;5102568;28;20182;-83
2022/12/10 10:07:21;;;;;;;18.52;11.93;;;0.20;1.00;;;;;;5101993;28;20202;-83
2022/12/10 10:09:53;;;;;;;18.75;13.13;;;-0.80;1.00;;;;;;5101338;28;20291;-83
2022/12/10 10:12:20;;;;;;;19.00;12.45;;;0.20;1.00;;;;;;5105461;28;20272;-82
2022/12/10 10:14:47;;;;;;;18.08;11.43;;;0.00;1.00;;;;;;5102640;28;20543;-83
2022/12/10 10:17:20;;;;;;;20.05;11.85;;;0.20;1.00;;;;;;5103250;28;20272;-83
2022/12/10 10:19:46;;;;;;;17.83;12.30;;;-0.30;1.00;;;;;;5103148;28;20236;-83
2022/12/10 10:22:13;;;;;;;22.30;13.20;;;0.00;1.00;;;;;;5107317;28;20281;-83
2022/12/10 10:24:42;;;;;;;16.90;11.23;;;0.10;1.00;;;;;;5117268;28;20236;-82
2022/12/10 10:27:16;;;;;;;17.60;12.20;;;0.10;1.00;;;;;;5118284;28;20285;-83
2022/12/10 10:29:44;;;;;;;18.45;12.23;;;0.40;1.00;;;;;;5114954;28;20244;-83
2022/12/10 10:32:17;;;;;;;19.73;12.40;;;0.20;1.00;;;;;;5105691;28;20201;-83
2022/12/10 10:34:45;;;;;;;17.63;13.80;;;0.30;1.00;;;;;;5105841;28;20183;-83
2022/12/10 10:37:19;;;;;;;17.25;12.85;;;0.40;1.00;;;;;;5103137;28;20208;-82
2022/12/10 10:39:51;;;;;;;17.75;14.52;;;0.10;1.00;;;;;;5103208;28;20312;-83
2022/12/10 10:42:38;;;;;;;15.73;11.65;;;0.30;1.00;;;;;;5103703;28;20208;-82
2022/12/10 10:45:07;;;;;;;15.85;11.45;;;0.40;1.00;;;;;;5101905;28;20186;-82
2022/12/10 10:47:37;;;;;;;18.38;13.43;;;0.40;1.00;;;;;;5103695;28;20210;-82
2022/12/10 10:50:05;;;;;;;20.27;13.20;;;0.00;1.00;;;;;;5104626;28;20217;-82
2022/12/10 10:52:38;;;;;;;18.88;12.38;;;-0.10;1.00;;;;;;5103597;28;20747;-83
2022/12/10 10:55:06;;;;;;;18.80;13.02;;;0.60;1.00;;;;;;5106752;28;20213;-84
2022/12/10 10:57:37;;;;;;;19.85;13.98;;;0.50;1.00;;;;;;5103374;28;20208;-82
2022/12/10 11:00:07;;;;;;;20.55;13.10;;;0.10;1.00;;;;;;5102268;28;20285;-83
2022/12/10 11:02:37;;;;;;;20.77;12.73;;;-0.20;1.00;;;;;;5102223;28;20253;-82
2022/12/10 11:05:08;;;;;;;21.95;13.63;;;0.30;1.00;;;;;;5102481;28;20284;-83
2022/12/10 11:07:37;;;;;;;19.23;12.50;;;-0.20;1.00;;;;;;5102164;28;20194;-83
2022/12/10 11:10:16;;;;;;;16.92;12.18;;;0.20;1.00;;;;;;5102169;28;20224;-84
2022/12/10 11:12:54;;;;;;;18.77;13.05;;;-0.10;29.40;;;;;;5105490;28;20246;-82
2022/12/10 11:15:34;;;;;;;18.02;13.90;;;0.00;99.90;;;;;;5103744;28;20194;-82
2022/12/10 11:18:01;;;;;;;20.02;12.50;;;0.10;99.90;;;;;;5111994;28;20219;-82
2022/12/10 11:20:31;;;;;;;21.15;13.32;;;0.00;99.90;;;;;;5120366;28;20205;-82
2022/12/10 11:22:59;;;;;;;20.23;14.38;;;0.10;1.00;;;;;;5119556;28;20202;-80
2022/12/10 11:25:42;;;;;;;20.80;14.35;;;-0.10;99.90;;;;;;5106122;28;20723;-82
2022/12/10 11:28:24;;;;;;;30.60;18.45;;;0.40;61.50;;;;;;5103334;28;20255;-82
2022/12/10 11:31:01;;;;;;;21.50;13.18;;;0.20;99.90;;;;;;5101788;28;20296;-82
2022/12/10 11:33:34;;;;;;;19.42;12.60;;;-0.20;99.90;;;;;;5102404;28;20199;-82
2022/12/10 11:36:10;;;;;;;20.45;12.45;;;0.30;99.90;;;;;;5104526;28;20179;-81
2022/12/10 11:38:46;;;;;;;17.42;12.88;;;0.40;1.00;;;;;;5102954;28;20218;-82
2022/12/10 11:41:26;;;;;;;20.55;13.82;;;-0.20;1.00;;;;;;5109923;28;20186;-82
2022/12/10 11:44:14;;;;;;;19.73;13.68;;;0.30;1.00;;;;;;5103277;28;20276;-81
2022/12/10 11:47:02;;;;;;;18.20;13.65;;;0.30;1.00;;;;;;5100868;28;20244;-82
2022/12/10 11:49:36;;;;;;;21.70;13.25;;;0.60;1.00;;;;;;5101669;28;20660;-82
2022/12/10 11:52:12;;;;;;;25.88;12.60;;;0.50;1.00;;;;;;5093803;28;20224;-83
2022/12/10 11:55:02;;;;;;;20.50;15.43;;;0.70;1.00;;;;;;5109597;28;20196;-83
2022/12/10 11:57:41;;;;;;;23.20;14.05;;;0.50;1.00;;;;;;5118877;28;20177;-82
2022/12/10 12:00:20;;;;;;;20.40;14.73;;;0.40;1.00;;;;;;5118425;28;20213;-82
2022/12/10 12:03:23;;;;;;;24.15;14.70;;;0.10;1.00;;;;;;5105128;28;20530;-83
2022/12/10 12:06:06;;;;;;;21.35;13.70;;;0.10;1.00;;;;;;5113453;28;20281;-80
2022/12/10 12:08:44;;;;;;;20.73;13.45;;;0.10;34.70;;;;;;5118877;28;20214;-83
2022/12/10 12:11:33;;;;;;;20.88;14.55;;;0.30;89.50;;;;;;5118044;28;20230;-81
2022/12/10 12:14:07;;;;;;;19.98;14.27;;;0.00;23.30;;;;;;5119107;28;20220;-82
2022/12/10 12:16:41;;;;;;;20.10;14.02;;;0.10;1.00;;;;;;5118862;28;20197;-83
2022/12/10 12:19:13;;;;;;;19.90;14.15;;;-0.20;92.20;;;;;;5119543;28;20208;-81
2022/12/10 12:21:41;;;;;;;20.10;13.65;;;0.30;99.90;;;;;;5119018;28;20205;-83
2022/12/10 12:24:13;;;;;;;22.90;13.35;;;0.30;1.00;;;;;;5107052;28;20631;-82
2022/12/10 12:26:41;;;;;;;18.92;13.93;;;0.60;1.00;;;;;;5102275;28;20209;-82
2022/12/10 12:29:16;;;;;;;18.90;12.98;;;0.00;1.00;;;;;;5100886;28;20245;-82
2022/12/10 12:31:48;;;;;;;23.38;13.25;;;0.50;1.00;;;;;;5102050;28;20207;-82
2022/12/10 12:34:21;;;;;;;21.00;13.73;;;-0.20;1.00;;;;;;5101667;28;20261;-82
2022/12/10 12:36:49;;;;;;;20.02;13.57;;;0.30;1.00;;;;;;5102098;28;20257;-84
2022/12/10 12:39:24;;;;;;;19.88;12.70;;;0.10;1.00;;;;;;5100643;28;20329;-83
2022/12/10 12:41:58;;;;;;;26.13;13.70;;;0.20;1.00;;;;;;5102431;28;20208;-83
2022/12/10 12:44:33;;;;;;;20.73;13.02;;;0.00;1.00;;;;;;5113265;28;20185;-82
2022/12/10 12:47:10;;;;;;;23.48;13.63;;;0.30;11.00;;;;;;5118314;28;20208;-83
2022/12/10 12:49:40;;;;;;;18.38;13.98;;;0.80;1.00;;;;;;5117785;28;20235;-83
2022/12/10 12:52:21;;;;;;;16.45;11.63;;;0.10;1.00;;;;;;5108531;28;20201;-82
2022/12/10 12:54:48;;;;;;;21.45;12.85;;;0.00;1.00;;;;;;5101575;28;20278;-83
2022/12/10 12:57:23;;;;;;;20.20;13.15;;;-0.10;1.00;;;;;;5101599;28;20212;-84
2022/12/10 12:59:56;;;;;;;19.42;12.10;;;0.30;1.00;;;;;;5109521;28;20251;-83
2022/12/10 13:02:45;;;;;;;19.63;12.57;;;-0.40;1.00;;;;;;5108119;28;20258;-83
2022/12/10 13:05:15;;;;;;;23.73;13.48;;;0.40;26.10;;;;;;5108567;28;20292;-84
2022/12/10 13:07:42;;;;;;;20.77;11.82;;;0.20;1.00;;;;;;5107684;28;20217;-83
2022/12/10 13:10:44;;;;;;;23.00;13.82;;;0.10;99.90;;;;;;5103097;28;20253;-83
2022/12/10 13:13:26;;;;;;;22.73;14.18;;;-0.50;99.90;;;;;;5092103;28;20202;-82
2022/12/10 13:15:53;;;;;;;20.00;13.82;;;-0.20;51.10;;;;;;5105263;28;20188;-83
2022/12/10 13:18:34;;;;;;;18.88;12.63;;;-0.10;62.70;;;;;;5102868;28;20205;-83
2022/12/10 13:21:17;;;;;;;21.40;12.50;;;0.70;73.90;;;;;;5107047;28;20222;-83
2022/12/10 13:23:54;;;;;;;19.83;11.80;;;0.10;1.00;;;;;;5100249;28;20216;-83
2022/12/10 13:26:26;;;;;;;18.65;12.50;;;0.00;1.00;;;;;;5099986;28;20209;-83
2022/12/10 13:28:54;;;;;;;21.42;13.30;;;0.20;1.00;;;;;;5100672;28;20276;-83
2022/12/10 13:31:39;;;;;;;21.27;12.68;;;0.10;46.40;;;;;;5100155;28;20189;-83
2022/12/10 13:34:23;;;;;;;19.73;13.68;;;0.50;21.60;;;;;;5096261;28;20227;-84
2022/12/10 13:37:19;;;;;;;17.42;12.52;;;-0.10;72.60;;;;;;5098572;28;20220;-85
2022/12/10 13:40:02;;;;;;;20.40;13.20;;;0.10;90.90;;;;;;5099376;28;20352;-84
2022/12/10 13:45:33;;;;;;;23.98;13.35;;;-0.10;99.90;;;;;;5099513;28;20241;-82
2022/12/10 13:48:30;;;;;;;21.55;14.30;;;0.10;99.90;;;;;;5100249;28;20206;-82
2022/12/10 13:51:26;;;;;;;19.88;13.55;;;-0.10;99.90;;;;;;5099746;28;20228;-82
2022/12/10 13:54:09;;;;;;;16.85;11.70;;;0.10;99.90;;;;;;5093954;28;20226;-82
2022/12/10 13:56:42;;;;;;;17.83;11.98;;;0.00;61.40;;;;;;5099062;28;20192;-82
2022/12/10 13:59:23;;;;;;;19.15;11.73;;;-0.10;88.90;;;;;;5099228;28;20753;-83
2022/12/10 14:01:58;;;;;;;17.88;12.85;;;-0.10;99.90;;;;;;5099881;28;20283;-84
2022/12/10 14:04:43;;;;;;;20.67;11.63;;;0.50;99.90;;;;;;5100839;28;20223;-83
2022/12/10 14:07:13;;;;;;;18.63;12.60;;;-0.10;45.20;;;;;;5099460;28;20237;-82
2022/12/10 14:09:46;;;;;;;25.73;13.52;;;-0.40;78.40;;;;;;5100044;28;20281;-82
2022/12/10 14:12:17;;;;;;;18.42;11.75;;;0.20;89.20;;;;;;5099123;28;20190;-82
2022/12/10 14:14:48;;;;;;;21.23;13.80;;;0.10;96.70;;;;;;5099140;28;20280;-83
2022/12/10 14:17:18;;;;;;;16.88;12.55;;;-2.00;1.00;;;;;;5099368;28;20208;-82
2022/12/10 14:19:48;;;;;;;21.65;12.27;;;-0.20;99.90;;;;;;5100445;28;20578;-83
2022/12/10 14:22:20;;;;;;;21.30;13.48;;;-0.20;99.90;;;;;;5099815;28;20209;-83
2022/12/10 14:24:50;;;;;;;19.17;13.50;;;-0.20;13.40;;;;;;5099497;28;20186;-83
2022/12/10 14:27:18;;;;;;;21.75;12.88;;;-0.30;99.90;;;;;;5099021;28;20721;-83
2022/12/10 14:29:46;;;;;;;19.05;13.52;;;-1.50;1.00;;;;;;5099134;28;20275;-83
2022/12/10 14:32:16;;;;;;;24.05;13.88;;;0.00;83.80;;;;;;5099296;28;20686;-85
2022/12/10 14:34:44;;;;;;;18.65;12.32;;;0.90;72.20;;;;;;5098896;28;20211;-84
2022/12/10 14:37:14;;;;;;;22.80;12.95;;;-0.10;1.00;;;;;;5101258;28;20197;-83
2022/12/10 14:39:42;;;;;;;21.00;13.40;;;-0.30;99.90;;;;;;5100804;28;20232;-84
2022/12/10 14:42:15;;;;;;;33.80;13.95;;;-0.30;99.90;;;;;;5099451;28;20244;-83
2022/12/10 14:44:43;;;;;;;25.33;13.68;;;-0.20;99.90;;;;;;5105432;28;20200;-83
2022/12/10 14:47:16;;;;;;;22.02;13.90;;;0.60;99.90;;;;;;5117625;28;20202;-82
2022/12/10 14:49:45;;;;;;;27.30;14.52;;;0.00;99.90;;;;;;5121566;28;20228;-82
2022/12/10 14:52:14;;;;;;;22.40;13.07;;;-0.10;99.90;;;;;;5106291;28;20662;-83
2022/12/10 14:54:42;;;;;;;25.90;15.63;;;-0.30;99.90;;;;;;5101263;28;20289;-83
2022/12/10 14:57:16;;;;;;;22.95;13.93;;;0.00;1.00;;;;;;5101535;28;20233;-83
2022/12/10 14:59:48;;;;;;;24.88;14.05;;;0.30;70.20;;;;;;5100971;28;20222;-83
2022/12/10 15:02:22;;;;;;;22.05;13.82;;;-0.20;99.90;;;;;;5112728;28;20250;-84
2022/12/10 15:04:51;;;;;;;28.65;16.67;;;-0.30;1.00;;;;;;5112115;28;20192;-83
2022/12/10 15:07:21;;;;;;;26.73;15.32;;;-0.50;99.90;;;;;;5103005;28;20268;-83
2022/12/10 15:09:50;;;;;;;25.83;15.63;;;-0.40;99.90;;;;;;5114103;28;20228;-83
2022/12/10 15:12:32;;;;;;;34.63;17.38;;;-0.30;27.90;;;;;;5111993;28;20201;-83
2022/12/10 15:15:07;;;;;;;27.13;14.68;;;-1.00;99.90;;;;;;5105563;28;20190;-84
2022/12/10 15:17:39;;;;;;;25.17;14.30;;;-0.10;20.50;;;;;;5108926;28;20197;-82
2022/12/10 15:20:19;;;;;;;21.38;12.70;;;0.00;99.90;;;;;;5107012;28;20274;-84
2022/12/10 15:22:46;;;;;;;25.40;15.70;;;0.10;99.90;;;;;;5102694;28;20252;-83
2022/12/10 15:25:25;;;;;;;28.15;16.77;;;-0.10;43.00;;;;;;5104567;28;20262;-84
2022/12/10 15:27:57;;;;;;;23.30;14.90;;;0.50;1.00;;;;;;5108149;28;20215;-84
2022/12/10 15:30:50;;;;;;;27.15;13.75;;;-0.10;1.00;;;;;;5129426;22;20239;-83
2022/12/10 15:33:32;;;;;;;29.73;15.25;;;;;;;;;;5103564;28;20222;-83
2022/12/10 15:36:03;;;;;;;23.33;14.13;;;;;;;;;;5104617;28;20185;-84
2022/12/10 15:38:50;;;;;;;27.63;15.45;;;-0.20;23.00;;;;;;5102907;28;20196;-84
2022/12/10 15:44:47;;;;;;;24.58;14.88;;;-0.10;1.00;;;;;;5083488;28;20267;-84
2022/12/10 15:47:21;;;;;;;27.45;16.20;;;-0.10;1.00;;;;;;5084932;28;20236;-84
2022/12/10 15:49:57;;;;;;;23.40;12.98;;;;;;;;;;5082621;28;20255;-85
2022/12/10 15:55:31;;;;;;;23.13;14.43;;;;;;;;;;5020532;28;20211;-85
2022/12/10 15:57:59;;;;;;;24.40;14.40;;;;;;;;;;5081360;28;20203;-85
2022/12/10 16:00:28;;;;;;;24.90;13.60;;;-0.10;1.00;;;;;;5080520;28;20230;-84
2022/12/10 16:02:58;;;;;;;25.88;14.85;;;-0.10;1.00;;;;;;5082556;28;20244;-82
2022/12/10 16:05:31;;;;;;;29.25;15.45;;;-0.10;1.00;;;;;;5081896;28;20205;-83
2022/12/10 16:08:14;;;;;;;27.73;13.30;;;-0.20;99.90;;;;;;5081584;28;20217;-84
2022/12/10 16:11:10;;;;;;;33.30;15.75;;;-0.10;7.60;;;;;;5086091;28;20222;-82
2022/12/10 16:20:14;;;;;;;24.10;13.20;;;-0.10;1.00;;;;;;5077945;28;20225;-80
2022/12/10 16:22:45;;;;;;;31.38;14.40;;;;;;;;;;5084190;28;20209;-83
2022/12/10 16:25:13;;;;;;;29.00;15.43;;;;;;;;;;5084176;28;20201;-82
2022/12/10 16:27:57;;;;;;;25.30;15.15;;;;;;;;;;5084129;28;20233;-84
2022/12/10 16:33:39;;;;;;;35.58;15.25;;;;;;;;;;5079627;28;20215;-83
2022/12/10 16:36:22;;;;;;;29.48;13.88;;;;;;;;;;5086841;28;20252;-83
2022/12/10 16:39:00;;;;;;;28.38;13.93;;;;;;;;;;5085147;28;20211;-83
2022/12/10 16:42:03;;;;;;;32.88;15.30;;;0.00;1.00;;;;;;5081542;28;20237;-83
2022/12/10 16:51:07;;;;;;;37.97;15.70;;;-0.10;1.00;;;;;;5069057;28;20258;-84
2022/12/10 16:54:11;;;;;;;37.30;15.82;;;-0.10;1.00;;;;;;5021716;28;20330;-82